METAR Data
IDs: Format: Raw Decoded Include TAF

Data at: 0214 UTC 26 Apr 2019

KAEG 260147Z 19005KT 10SM BKN130 17/04 A3013
KAEG 260047Z VRB05KT 10SM BKN130 21/04 A3012 RMK SHRA DSNT W VIRGA DSNT SE-W
KAEG 252347Z VRB05KT 10SM FEW130 23/01 A3012 RMK SHRA DSNT W
KAEG 252247Z VRB05KT 10SM FEW130 24/00 A3012
KAEG 252147Z 18006KT 10SM FEW130 24/00 A3013
KAEG 252047Z 18006KT 10SM FEW100 23/M01 A3015
KAEG 251952Z 18006KT 10SM FEW100 23/01 A3015
KAEG 251848Z VRB05KT 10SM FEW100 22/02 A3016
KAEG 251750Z 00000KT 10SM SCT100 20/01 A3017
KAEG 251647Z VRB04KT 10SM FEW100 19/02 A3016
KAEG 251547Z 00000KT 10SM CLR 16/01 A3016
KAEG 251449Z 01003KT 10SM CLR 14/00 A3015
KAEG 251350Z 01003KT 10SM CLR 13/01 A3013
KAEG 251249Z 31006KT 10SM CLR 07/00 A3010
KAEG 251150Z 00000KT 10SM CLR 03/00 A3007
KAEG 251135Z AUTO 00000KT 10SM CLR 06/00 A3007 RMK AO2 T00560000
KAEG 251115Z AUTO 00000KT 10SM CLR 05/00 A3007 RMK AO2 T00521001
KAEG 251055Z AUTO 00000KT 10SM CLR 08/00 A3006 RMK AO2 T00811002
KAEG 251035Z AUTO 08003KT 10SM CLR 07/00 A3006 RMK AO2 T00740001
KAEG 251015Z AUTO 25004KT 10SM CLR 06/00 A3005 RMK AO2 T00610000
KAEG 250955Z AUTO 26006KT 10SM CLR 07/00 A3005 RMK AO2 T00710000
KAEG 250935Z AUTO 24004KT 10SM CLR 06/00 A3004 RMK AO2 T00560002
KAEG 250915Z AUTO 00000KT 10SM CLR 07/00 A3004 RMK AO2 T00720000
KAEG 250855Z AUTO 00000KT 10SM CLR 06/00 A3004 RMK AO2 T00610004
KAEG 250835Z AUTO 00000KT 10SM CLR 09/00 A3004 RMK AO2 T00870003
KAEG 250815Z AUTO 00000KT 10SM CLR 08/01 A3004 RMK AO2 T00830006
KAEG 250755Z AUTO 00000KT 10SM CLR 08/00 A3004 RMK AO2 T00810003
KAEG 250735Z AUTO 00000KT 10SM CLR 10/00 A3004 RMK AO2 T01020001
KAEG 250715Z AUTO 06003KT 10SM CLR 09/01 A3004 RMK AO2 T00870005
KAEG 250655Z AUTO 30006KT 10SM CLR 10/00 A3003 RMK AO2 T01010001 402230027
KAEG 250615Z AUTO 30006KT 10SM CLR 10/00 A3003 RMK AO2 T01040003
KAEG 250555Z AUTO 28006KT 10SM CLR 09/01 A3003 RMK AO2 T00850005 10219 20085
KAEG 250535Z AUTO 27007KT 10SM CLR 09/01 A3003 RMK AO2 T00910005
KAEG 250515Z AUTO 27008KT 10SM CLR 09/01 A3003 RMK AO2 T00890005
KAEG 250455Z AUTO 27006KT 10SM CLR 10/00 A3003 RMK AO2 T00950001
KAEG 250435Z AUTO 28009KT 10SM CLR 09/00 A3003 RMK AO2 T00930000
KAEG 250415Z AUTO 28007KT 10SM CLR 10/00 A3003 RMK AO2 T01000000
KAEG 250355Z AUTO 28008KT 10SM CLR 11/00 A3003 RMK AO2 T01050000
KAEG 250247Z 31007KT 10SM SCT110 13/M02 A3001
KAEG 250147Z 29007KT 10SM SCT110 17/M01 A2999
KAEG 250047Z 30016KT 10SM SCT110 21/M02 A2998
KAEG 242347Z 33010KT 10SM BKN110 21/M02 A2998
KAEG 242247Z 31015KT 10SM SCT090 BKN110 22/01 A2998
KAEG 242147Z VRB04KT 10SM BKN090 BKN110 20/M01 A2999
KAEG 242050Z 00000KT 10SM BKN080 BKN100 BKN110 18/03 A3002
KAEG 242018Z 16008KT 10SM BKN075 19/05 A3002
KAEG 241948Z 36003KT 10SM BKN065 18/03 A3003
KAEG 241847Z 33005KT 10SM BKN055 BKN100 19/06 A3004
KAEG 241747Z 06009KT 10SM SCT045 17/06 A3007
KAEG 241647Z 33010G15KT 10SM SCT130 16/06 A3009
KAEG 241549Z 04006KT 10SM SCT130 13/06 A3009
KAEG 241450Z 36009G15KT 10SM SCT060 11/06 A3010